createdAt,value
2018-08-19T00:02:10.096Z,74.00
2018-08-19T00:04:36.411Z,74.46
2018-08-19T00:07:02.723Z,74.91
2018-08-19T00:09:29.037Z,75.27
2018-08-19T00:11:55.349Z,75.15
2018-08-19T00:14:21.709Z,75.09
2018-08-19T00:16:48.019Z,75.00
2018-08-19T00:19:14.333Z,74.90
2018-08-19T00:21:40.727Z,75.36
2018-08-19T00:24:06.985Z,75.00
2018-08-19T00:26:33.291Z,74.44
2018-08-19T00:28:59.610Z,74.96
2018-08-19T00:31:25.922Z,76.07
2018-08-19T00:33:52.246Z,76.66
2018-08-19T00:36:18.538Z,77.35
2018-08-19T00:38:44.848Z,77.40
2018-08-19T00:41:11.161Z,77.69
2018-08-19T00:43:37.484Z,77.58
2018-08-19T00:46:03.832Z,77.35
2018-08-19T00:48:30.187Z,77.40
2018-08-19T00:50:56.503Z,78.27
2018-08-19T00:53:22.818Z,78.13
2018-08-19T00:55:49.165Z,78.28
2018-08-19T00:58:15.470Z,77.87
2018-08-19T01:00:41.786Z,78.01
2018-08-19T01:03:08.101Z,78.05
2018-08-19T01:05:34.404Z,78.24
2018-08-19T01:08:00.724Z,78.34
2018-08-19T01:10:27.036Z,78.30
2018-08-19T01:12:53.362Z,78.55
2018-08-19T01:15:19.676Z,77.76
2018-08-19T01:17:45.989Z,77.50
2018-08-19T01:20:12.306Z,78.09
2018-08-19T01:22:38.617Z,78.68
2018-08-19T01:25:04.938Z,78.51
2018-08-19T01:27:31.253Z,78.46
2018-08-19T01:29:57.568Z,79.04
2018-08-19T01:32:23.888Z,78.87
2018-08-19T01:34:50.201Z,78.94
2018-08-19T01:37:16.513Z,79.88
2018-08-19T01:39:42.824Z,80.32
2018-08-19T01:42:09.135Z,80.23
2018-08-19T01:44:35.443Z,80.31
2018-08-19T01:47:01.756Z,80.23
2018-08-19T01:49:28.060Z,80.42
2018-08-19T01:51:54.367Z,80.02
2018-08-19T01:54:20.680Z,80.45
2018-08-19T01:56:46.995Z,80.59
2018-08-19T01:59:13.315Z,80.56
2018-08-19T02:01:39.620Z,80.88
2018-08-19T02:04:05.938Z,80.95
2018-08-19T02:06:32.284Z,81.06
2018-08-19T02:08:58.648Z,81.11
2018-08-19T02:11:24.965Z,81.01
2018-08-19T02:13:51.310Z,81.07
2018-08-19T02:16:17.644Z,81.06
2018-08-19T02:18:43.986Z,80.68
2018-08-19T02:21:10.298Z,80.90
2018-08-19T02:23:36.611Z,80.70
2018-08-19T02:26:02.966Z,80.75
2018-08-19T02:28:29.270Z,80.94
2018-08-19T02:30:55.641Z,81.22
2018-08-19T02:33:21.953Z,81.04
2018-08-19T02:35:48.260Z,80.55
2018-08-19T02:38:14.570Z,80.35
2018-08-19T02:40:40.880Z,81.04
2018-08-19T02:43:07.189Z,80.94
2018-08-19T02:45:33.501Z,80.75
2018-08-19T02:47:59.807Z,80.84
2018-08-19T02:50:26.121Z,81.47
2018-08-19T02:52:52.439Z,81.87
2018-08-19T02:55:18.752Z,82.88
2018-08-19T02:57:45.072Z,83.07
2018-08-19T03:00:11.382Z,83.11
2018-08-19T03:02:37.692Z,82.43
2018-08-19T03:05:04.005Z,81.66
2018-08-19T03:07:30.318Z,81.21
2018-08-19T03:09:56.673Z,81.29
2018-08-19T03:12:23.018Z,81.10
2018-08-19T03:14:49.369Z,80.85
2018-08-19T03:17:15.726Z,80.94
2018-08-19T03:19:42.048Z,81.13
2018-08-19T03:22:08.369Z,81.25
2018-08-19T03:24:34.678Z,81.46
2018-08-19T03:27:01.039Z,81.84
2018-08-19T03:29:27.342Z,81.98
2018-08-19T03:31:53.658Z,82.42
2018-08-19T03:34:19.976Z,82.31
2018-08-19T03:36:46.293Z,82.28
2018-08-19T03:39:12.608Z,82.07
2018-08-19T03:41:38.920Z,82.19
2018-08-19T03:44:05.230Z,81.91
2018-08-19T03:46:31.537Z,82.18
2018-08-19T03:48:57.845Z,82.19
2018-08-19T03:51:24.195Z,82.26
2018-08-19T03:53:50.509Z,82.23
2018-08-19T03:56:16.827Z,82.30
2018-08-19T03:58:43.184Z,82.11
2018-08-19T04:01:09.520Z,82.13
2018-08-19T04:03:35.828Z,82.06
2018-08-19T04:06:02.144Z,81.86
2018-08-19T04:08:28.449Z,81.93
2018-08-19T04:10:54.773Z,81.94
2018-08-19T04:13:21.123Z,81.69
2018-08-19T04:15:47.431Z,81.59
2018-08-19T04:18:13.751Z,81.79
2018-08-19T04:20:40.061Z,81.79
2018-08-19T04:23:06.375Z,82.05
2018-08-19T04:25:32.694Z,82.00
2018-08-19T04:27:59.024Z,82.36
2018-08-19T04:30:25.330Z,82.74
2018-08-19T04:32:51.674Z,82.59
2018-08-19T04:35:17.990Z,83.04
2018-08-19T04:37:44.298Z,83.79
2018-08-19T04:40:10.618Z,84.73
2018-08-19T04:42:36.981Z,84.94
2018-08-19T04:45:03.282Z,84.37
2018-08-19T04:47:29.600Z,83.94
2018-08-19T04:49:55.911Z,83.33
2018-08-19T04:52:22.224Z,82.87
2018-08-19T04:54:48.560Z,82.43
2018-08-19T04:57:14.879Z,82.51
2018-08-19T04:59:41.193Z,81.83
2018-08-19T05:02:07.523Z,81.44
2018-08-19T05:04:33.822Z,81.15
2018-08-19T05:07:00.183Z,80.87
2018-08-19T05:09:26.494Z,80.38
2018-08-19T05:11:52.805Z,80.27
2018-08-19T05:14:19.117Z,80.31
2018-08-19T05:16:45.430Z,79.86
2018-08-19T05:19:11.751Z,79.71
2018-08-19T05:21:38.058Z,79.40
2018-08-19T05:24:04.372Z,79.35
2018-08-19T05:26:30.694Z,79.17
2018-08-19T05:28:56.999Z,79.02
2018-08-19T05:31:23.367Z,78.60
2018-08-19T05:33:49.631Z,78.40
2018-08-19T05:36:15.963Z,78.02
2018-08-19T05:38:42.299Z,77.97
2018-08-19T05:41:08.609Z,77.48
2018-08-19T05:43:34.915Z,77.56
2018-08-19T05:46:01.277Z,76.82
2018-08-19T05:48:27.589Z,76.37
2018-08-19T05:50:53.897Z,76.17
2018-08-19T05:53:20.212Z,76.07
2018-08-19T05:55:46.524Z,75.93
2018-08-19T05:58:12.828Z,75.98
2018-08-19T06:00:39.138Z,75.50
2018-08-19T06:03:05.447Z,75.30
2018-08-19T06:05:31.761Z,74.68
2018-08-19T06:07:58.070Z,74.51
2018-08-19T06:10:24.381Z,74.10
2018-08-19T06:12:50.697Z,73.74
2018-08-19T06:15:17.015Z,72.55
2018-08-19T06:17:43.332Z,72.71
2018-08-19T06:20:09.650Z,72.84
2018-08-19T06:22:35.959Z,72.68
2018-08-19T06:25:02.311Z,71.78
2018-08-19T06:27:28.631Z,71.21
2018-08-19T06:29:54.946Z,71.51
2018-08-19T06:32:21.252Z,71.13
2018-08-19T06:34:47.668Z,70.71
2018-08-19T06:37:13.876Z,70.37
2018-08-19T06:39:40.189Z,69.26
2018-08-19T06:42:06.503Z,68.64
2018-08-19T06:44:32.840Z,67.77
2018-08-19T06:46:59.148Z,67.04
2018-08-19T06:49:25.465Z,68.29
2018-08-19T06:51:51.908Z,67.73
2018-08-19T06:54:18.270Z,67.43
2018-08-19T06:56:44.582Z,65.66
2018-08-19T06:59:10.891Z,65.51
2018-08-19T07:01:37.213Z,65.13
2018-08-19T07:04:03.534Z,65.06
2018-08-19T07:06:29.849Z,64.22
2018-08-19T07:08:56.271Z,67.64
2018-08-19T07:11:22.582Z,64.27
2018-08-19T07:13:48.900Z,62.52
2018-08-19T07:16:15.230Z,61.43
2018-08-19T07:18:41.597Z,63.89
2018-08-19T07:21:07.854Z,64.10
2018-08-19T07:23:34.171Z,64.14
2018-08-19T07:26:00.480Z,62.29
2018-08-19T07:28:26.833Z,60.93
2018-08-19T07:30:53.138Z,60.40
2018-08-19T07:33:19.451Z,59.45
2018-08-19T07:35:45.760Z,58.47
2018-08-19T07:38:12.063Z,59.31
2018-08-19T07:40:38.381Z,58.38
2018-08-19T07:43:04.699Z,57.77
2018-08-19T07:45:31.010Z,55.99
2018-08-19T07:47:57.335Z,56.46
2018-08-19T07:50:23.662Z,54.06
2018-08-19T07:52:50.055Z,54.33
2018-08-19T07:55:16.366Z,56.04
2018-08-19T07:57:42.676Z,55.11
2018-08-19T08:00:09.048Z,55.12
2018-08-19T08:02:35.349Z,54.89
2018-08-19T08:05:01.660Z,51.30
2018-08-19T08:07:27.981Z,53.11
2018-08-19T08:09:54.298Z,54.25
2018-08-19T08:12:20.609Z,53.71
2018-08-19T08:14:46.953Z,54.72
2018-08-19T08:17:13.268Z,54.27
2018-08-19T08:19:39.587Z,53.74
2018-08-19T08:22:05.903Z,53.00
2018-08-19T08:24:32.226Z,52.83
2018-08-19T08:26:58.537Z,49.34
2018-08-19T08:29:24.850Z,49.24
2018-08-19T08:31:51.162Z,49.44
2018-08-19T08:34:17.533Z,48.76
2018-08-19T08:36:43.798Z,48.96
2018-08-19T08:39:10.171Z,49.45
2018-08-19T08:41:36.477Z,50.45
2018-08-19T08:44:02.782Z,50.00
2018-08-19T08:46:29.102Z,51.17
2018-08-19T08:48:55.432Z,49.36
2018-08-19T08:51:21.740Z,48.30
2018-08-19T08:53:48.052Z,54.17
2018-08-19T08:56:14.397Z,52.86
2018-08-19T08:58:40.675Z,52.55
2018-08-19T09:01:06.992Z,52.45
2018-08-19T09:03:33.306Z,57.80
2018-08-19T09:05:59.627Z,56.54
2018-08-19T09:08:25.988Z,52.42
2018-08-19T09:10:52.320Z,50.01
2018-08-19T09:13:18.637Z,50.04
2018-08-19T09:15:44.979Z,54.41
2018-08-19T09:18:11.264Z,54.04
2018-08-19T09:20:37.568Z,54.25
2018-08-19T09:23:03.972Z,53.34
2018-08-19T09:25:30.200Z,50.60
2018-08-19T09:27:56.561Z,50.05
2018-08-19T09:30:22.878Z,51.28
2018-08-19T09:32:49.316Z,56.66
2018-08-19T09:35:15.589Z,55.11
2018-08-19T09:37:41.916Z,49.90
2018-08-19T09:40:08.237Z,50.05
2018-08-19T09:42:34.551Z,47.70
2018-08-19T09:45:00.857Z,48.99
2018-08-19T09:47:27.218Z,50.07
2018-08-19T09:49:53.492Z,51.48
2018-08-19T09:52:19.844Z,45.71
2018-08-19T09:54:46.154Z,43.90
2018-08-19T09:57:12.468Z,48.29
2018-08-19T09:59:38.782Z,49.00
2018-08-19T10:02:05.100Z,43.74
2018-08-19T10:04:31.414Z,40.18
2018-08-19T10:06:57.736Z,42.23
2018-08-19T10:09:24.090Z,43.62
2018-08-19T10:11:50.408Z,42.65
2018-08-19T10:14:16.718Z,41.62
2018-08-19T10:16:43.062Z,42.38
2018-08-19T10:19:09.343Z,42.72
2018-08-19T10:21:35.653Z,42.99
2018-08-19T10:24:01.965Z,43.91
2018-08-19T10:26:28.324Z,44.09
2018-08-19T10:28:55.986Z,44.18
2018-08-19T10:31:22.334Z,45.52
2018-08-19T10:33:48.612Z,43.26
2018-08-19T10:36:14.929Z,42.86
2018-08-19T10:38:41.248Z,39.61
2018-08-19T10:41:07.558Z,35.20
2018-08-19T10:43:33.870Z,35.17
2018-08-19T10:46:00.185Z,36.36
2018-08-19T10:48:26.508Z,37.38
2018-08-19T10:50:52.831Z,37.29
2018-08-19T10:53:19.161Z,37.81
2018-08-19T10:55:45.480Z,34.80
2018-08-19T10:58:11.803Z,35.80
2018-08-19T11:00:38.162Z,34.99
2018-08-19T11:03:04.479Z,35.16
2018-08-19T11:05:30.792Z,35.29
2018-08-19T11:07:57.120Z,34.97
2018-08-19T11:10:23.424Z,34.33
2018-08-19T11:12:49.731Z,33.93
2018-08-19T11:15:16.043Z,34.75
2018-08-19T11:17:42.391Z,35.63
2018-08-19T11:20:08.700Z,36.34
2018-08-19T11:22:35.054Z,36.29
2018-08-19T11:25:01.372Z,35.60
2018-08-19T11:27:27.720Z,35.81
2018-08-19T11:29:54.000Z,35.74
2018-08-19T11:32:20.312Z,35.75
2018-08-19T11:34:46.622Z,36.91
2018-08-19T11:37:12.937Z,37.32
2018-08-19T11:39:39.245Z,37.43
2018-08-19T11:42:05.601Z,37.55
2018-08-19T11:44:31.916Z,38.17
2018-08-19T11:46:58.271Z,38.64
2018-08-19T11:49:24.602Z,38.95
2018-08-19T11:51:50.979Z,38.95
2018-08-19T11:54:17.310Z,37.97
2018-08-19T11:56:43.612Z,39.11
2018-08-19T11:59:09.927Z,37.09
2018-08-19T12:01:36.235Z,37.56
2018-08-19T12:04:02.555Z,38.70
2018-08-19T12:06:28.882Z,37.50
2018-08-19T12:08:55.202Z,35.15
2018-08-19T12:11:21.512Z,35.53
2018-08-19T12:13:52.809Z,33.95
2018-08-19T12:16:14.650Z,33.64
2018-08-19T12:18:40.948Z,35.08
2018-08-19T12:21:07.266Z,35.52
2018-08-19T12:23:33.613Z,35.54
2018-08-19T12:25:59.929Z,36.74
2018-08-19T12:28:29.479Z,35.85
2018-08-19T12:30:55.789Z,34.07
2018-08-19T12:33:22.128Z,34.51
2018-08-19T12:35:48.445Z,35.33
2018-08-19T12:38:14.759Z,36.47
2018-08-19T12:40:41.110Z,37.09
2018-08-19T12:43:07.420Z,38.45
2018-08-19T12:45:33.736Z,34.33
2018-08-19T12:48:00.047Z,36.26
2018-08-19T12:50:26.356Z,38.43
2018-08-19T12:52:52.675Z,39.09
2018-08-19T12:55:18.981Z,39.74
2018-08-19T12:57:45.371Z,39.37
2018-08-19T13:00:11.681Z,42.05
2018-08-19T13:02:37.998Z,45.58
2018-08-19T13:05:18.556Z,46.59
2018-08-19T13:07:44.731Z,47.76
2018-08-19T13:10:11.042Z,47.60
2018-08-19T13:12:37.352Z,48.76
2018-08-19T13:15:03.753Z,50.14
2018-08-19T13:17:40.658Z,49.54
2018-08-19T13:20:06.981Z,46.43
2018-08-19T13:22:33.297Z,48.02
2018-08-19T13:24:59.651Z,48.83
2018-08-19T13:27:26.010Z,50.40
2018-08-19T13:29:52.329Z,50.19
2018-08-19T13:32:18.641Z,50.72
2018-08-19T13:34:45.038Z,51.58
2018-08-19T13:37:11.389Z,51.66
2018-08-19T13:39:37.694Z,50.54
2018-08-19T13:42:04.012Z,50.72
2018-08-19T13:44:30.319Z,50.74
2018-08-19T13:46:56.682Z,48.54
2018-08-19T13:49:22.986Z,48.11
2018-08-19T13:51:49.296Z,48.68
2018-08-19T13:54:15.606Z,48.31
2018-08-19T13:56:41.926Z,48.07
2018-08-19T13:59:08.251Z,48.60
2018-08-19T14:01:34.567Z,48.17
2018-08-19T14:04:00.911Z,46.36
2018-08-19T14:06:27.224Z,45.99
2018-08-19T14:08:53.536Z,46.42
2018-08-19T14:11:19.847Z,46.26
2018-08-19T14:13:46.157Z,45.25
2018-08-19T14:16:12.479Z,44.45
2018-08-19T14:18:38.794Z,44.33
2018-08-19T14:21:05.111Z,44.60
2018-08-19T14:23:31.424Z,45.46
2018-08-19T14:25:57.751Z,45.58
2018-08-19T14:28:24.143Z,45.50
2018-08-19T14:30:50.509Z,45.97
2018-08-19T14:33:19.000Z,46.50
2018-08-19T14:35:44.091Z,47.03
2018-08-19T14:38:10.403Z,44.69
2018-08-19T14:40:36.733Z,44.42
2018-08-19T14:43:03.039Z,44.41
2018-08-19T14:45:30.544Z,44.15
2018-08-19T14:47:56.883Z,44.55
2018-08-19T14:50:23.193Z,46.20
2018-08-19T14:52:49.509Z,46.61
2018-08-19T14:55:15.828Z,45.67
2018-08-19T14:57:42.139Z,46.23
2018-08-19T15:00:08.449Z,47.00
2018-08-19T15:02:34.760Z,48.21
2018-08-19T15:05:01.088Z,46.29
2018-08-19T15:07:27.394Z,45.52
2018-08-19T15:09:53.845Z,46.70
2018-08-19T15:12:20.055Z,46.28
2018-08-19T15:14:46.367Z,47.44
2018-08-19T15:17:12.678Z,46.91
2018-08-19T15:19:39.017Z,48.44
2018-08-19T15:22:05.342Z,49.56
2018-08-19T15:24:31.653Z,49.71
2018-08-19T15:26:57.979Z,50.61
2018-08-19T15:29:24.332Z,51.22
2018-08-19T15:31:50.740Z,51.50
2018-08-19T15:34:17.096Z,50.36
2018-08-19T15:36:43.413Z,52.03
2018-08-19T15:39:09.746Z,51.25
2018-08-19T15:41:36.061Z,50.35
2018-08-19T15:44:02.408Z,50.80
2018-08-19T15:46:28.727Z,51.22
2018-08-19T15:48:55.090Z,50.37
2018-08-19T15:51:21.431Z,49.10
2018-08-19T15:53:47.745Z,49.44
2018-08-19T15:56:14.051Z,51.56
2018-08-19T15:58:40.427Z,50.61
2018-08-19T16:01:06.729Z,51.23
2018-08-19T16:03:33.047Z,48.72
2018-08-19T16:05:59.367Z,49.34
2018-08-19T16:08:25.682Z,49.91
2018-08-19T16:10:51.994Z,50.73
2018-08-19T16:13:18.314Z,47.93
2018-08-19T16:15:44.621Z,48.79
2018-08-19T16:18:10.942Z,46.84
2018-08-19T16:20:37.250Z,47.86
2018-08-19T16:23:03.579Z,49.08
2018-08-19T16:25:29.892Z,47.63
2018-08-19T16:27:56.195Z,47.60
2018-08-19T16:30:22.514Z,47.13
2018-08-19T16:32:48.830Z,47.65
2018-08-19T16:35:15.150Z,47.25
2018-08-19T16:37:41.506Z,48.17
2018-08-19T16:40:07.825Z,48.51
2018-08-19T16:42:34.131Z,48.18
2018-08-19T16:45:00.489Z,48.15
2018-08-19T16:47:26.797Z,46.91
2018-08-19T16:49:53.133Z,48.18
2018-08-19T16:52:19.446Z,48.51
2018-08-19T16:54:45.760Z,48.16
2018-08-19T16:57:12.178Z,48.45
2018-08-19T16:59:38.452Z,48.85
2018-08-19T17:02:04.769Z,48.88
2018-08-19T17:04:31.080Z,48.59
2018-08-19T17:06:57.394Z,48.19
2018-08-19T17:09:23.700Z,48.04
2018-08-19T17:11:50.011Z,49.02
2018-08-19T17:14:16.374Z,48.75
2018-08-19T17:16:42.687Z,49.28
2018-08-19T17:19:09.000Z,49.30
2018-08-19T17:21:35.311Z,49.18
2018-08-19T17:24:01.656Z,49.25
2018-08-19T17:26:28.000Z,48.93
2018-08-19T17:28:54.247Z,48.39
2018-08-19T17:31:20.577Z,48.90
2018-08-19T17:33:46.908Z,49.28
2018-08-19T17:36:13.215Z,48.98
2018-08-19T17:38:39.541Z,48.39
2018-08-19T17:41:05.849Z,48.81
2018-08-19T17:43:32.162Z,49.52
2018-08-19T17:45:58.479Z,48.77
2018-08-19T17:48:24.787Z,49.09
2018-08-19T17:50:51.095Z,48.75
2018-08-19T17:53:17.407Z,49.46
2018-08-19T17:55:43.729Z,49.26
2018-08-19T17:58:10.039Z,49.64
2018-08-19T18:00:36.346Z,50.62
2018-08-19T18:03:02.652Z,50.35
2018-08-19T18:05:28.985Z,50.17
2018-08-19T18:07:55.281Z,50.10
2018-08-19T18:10:21.606Z,49.89
2018-08-19T18:12:47.920Z,50.02
2018-08-19T18:15:14.298Z,49.84
2018-08-19T18:17:40.564Z,49.46
2018-08-19T18:20:06.883Z,50.53
2018-08-19T18:22:33.279Z,50.14
2018-08-19T18:24:59.645Z,49.53
2018-08-19T18:27:25.973Z,50.21
2018-08-19T18:29:52.299Z,49.96
2018-08-19T18:32:18.634Z,50.09
2018-08-19T18:34:44.946Z,50.72
2018-08-19T18:37:11.265Z,50.71
2018-08-19T18:39:37.580Z,50.77
2018-08-19T18:42:03.922Z,50.54
2018-08-19T18:44:30.250Z,51.24
2018-08-19T18:46:56.574Z,49.89
2018-08-19T18:49:22.910Z,51.26
2018-08-19T18:51:49.232Z,51.37
2018-08-19T18:54:15.594Z,50.43
2018-08-19T18:56:41.903Z,51.52
2018-08-19T18:59:08.232Z,51.73
2018-08-19T19:01:34.541Z,51.67
2018-08-19T19:04:01.117Z,52.55
2018-08-19T19:06:27.480Z,52.81
2018-08-19T19:08:53.789Z,52.18
2018-08-19T19:11:20.100Z,52.25
2018-08-19T19:13:46.412Z,52.05
2018-08-19T19:16:12.718Z,51.77
2018-08-19T19:18:39.036Z,52.35
2018-08-19T19:21:05.350Z,52.37
2018-08-19T19:23:31.742Z,53.16
2018-08-19T19:25:58.053Z,53.26
2018-08-19T19:28:24.424Z,53.23
2018-08-19T19:30:50.726Z,52.91
2018-08-19T19:33:17.042Z,52.81
2018-08-19T19:35:43.384Z,53.28
2018-08-19T19:38:09.691Z,53.85
2018-08-19T19:40:36.035Z,54.50
2018-08-19T19:43:02.354Z,54.73
2018-08-19T19:45:28.676Z,54.87
2018-08-19T19:47:54.996Z,54.59
2018-08-19T19:50:21.311Z,55.25
2018-08-19T19:52:47.616Z,55.55
2018-08-19T19:55:13.957Z,56.30
2018-08-19T19:57:40.241Z,56.46
2018-08-19T20:00:06.612Z,56.08
2018-08-19T20:02:32.920Z,55.97
2018-08-19T20:04:59.263Z,56.07
2018-08-19T20:07:25.633Z,56.60
2018-08-19T20:09:51.944Z,56.65
2018-08-19T20:12:18.265Z,56.72
2018-08-19T20:14:44.576Z,57.27
2018-08-19T20:17:10.902Z,57.69
2018-08-19T20:19:37.238Z,57.52
2018-08-19T20:22:03.565Z,57.80
2018-08-19T20:24:29.884Z,57.66
2018-08-19T20:26:56.210Z,56.85
2018-08-19T20:29:22.578Z,56.84
2018-08-19T20:31:48.892Z,56.55
2018-08-19T20:34:15.203Z,56.42
2018-08-19T20:36:41.536Z,56.56
2018-08-19T20:39:07.852Z,56.44
2018-08-19T20:41:34.161Z,57.07
2018-08-19T20:44:00.490Z,57.32
2018-08-19T20:46:26.818Z,57.82
2018-08-19T20:48:53.155Z,57.92
2018-08-19T20:51:19.485Z,57.76
2018-08-19T20:53:45.820Z,58.41
2018-08-19T20:56:12.142Z,58.07
2018-08-19T20:58:38.446Z,58.22
2018-08-19T21:01:04.758Z,58.18
2018-08-19T21:03:31.072Z,58.18
2018-08-19T21:05:57.397Z,57.93
2018-08-19T21:08:23.714Z,58.42
2018-08-19T21:10:50.022Z,58.57
2018-08-19T21:13:16.351Z,58.94
2018-08-19T21:15:42.665Z,59.46
2018-08-19T21:18:08.996Z,59.32
2018-08-19T21:20:35.314Z,59.58
2018-08-19T21:23:01.672Z,59.57
2018-08-19T21:25:27.990Z,59.01
2018-08-19T21:27:54.303Z,59.51
2018-08-19T21:30:20.683Z,60.23
2018-08-19T21:32:46.963Z,61.02
2018-08-19T21:35:13.282Z,61.21
2018-08-19T21:37:39.597Z,61.86
2018-08-19T21:40:05.910Z,61.89
2018-08-19T21:42:32.352Z,62.61
2018-08-19T21:44:58.666Z,63.08
2018-08-19T21:47:24.979Z,63.13
2018-08-19T21:49:51.297Z,63.08
2018-08-19T21:52:17.615Z,63.65
2018-08-19T21:54:43.925Z,63.20
2018-08-19T21:57:10.282Z,62.43
2018-08-19T21:59:36.628Z,61.67
2018-08-19T22:02:02.947Z,61.61
2018-08-19T22:04:29.251Z,62.18
2018-08-19T22:06:55.571Z,62.04
2018-08-19T22:09:21.884Z,62.63
2018-08-19T22:11:48.197Z,63.21
2018-08-19T22:14:14.518Z,63.75
2018-08-19T22:16:40.836Z,64.06
2018-08-19T22:19:07.152Z,63.87
2018-08-19T22:21:33.466Z,64.55
2018-08-19T22:23:59.787Z,63.92
2018-08-19T22:26:26.102Z,64.47
2018-08-19T22:28:52.432Z,63.82
2018-08-19T22:31:18.789Z,64.04
2018-08-19T22:33:45.102Z,63.87
2018-08-19T22:36:11.416Z,64.65
2018-08-19T22:38:37.730Z,64.20
2018-08-19T22:41:04.047Z,61.59
2018-08-19T22:43:30.360Z,62.97
2018-08-19T22:45:56.709Z,64.64
2018-08-19T22:48:23.021Z,65.19
2018-08-19T22:50:49.331Z,65.22
2018-08-19T22:53:15.667Z,63.98
2018-08-19T22:55:42.012Z,63.79
2018-08-19T22:58:08.319Z,63.85
2018-08-19T23:00:34.627Z,64.14
2018-08-19T23:03:00.938Z,64.49
2018-08-19T23:05:27.264Z,64.11
2018-08-19T23:07:53.641Z,64.29
2018-08-19T23:10:19.948Z,63.89
2018-08-19T23:12:46.266Z,64.25
2018-08-19T23:15:12.589Z,64.93
2018-08-19T23:17:38.906Z,65.30
2018-08-19T23:20:05.269Z,65.24
2018-08-19T23:22:31.543Z,65.07
2018-08-19T23:24:57.847Z,65.22
2018-08-19T23:27:24.158Z,65.93
2018-08-19T23:29:50.493Z,66.08
2018-08-19T23:32:16.833Z,66.24
2018-08-19T23:34:43.178Z,66.65
2018-08-19T23:37:09.495Z,67.07
2018-08-19T23:39:35.814Z,67.06
2018-08-19T23:42:02.125Z,67.02
2018-08-19T23:44:28.436Z,67.32
2018-08-19T23:46:54.749Z,67.36
2018-08-19T23:49:21.095Z,67.56
2018-08-19T23:51:47.403Z,67.62
2018-08-19T23:54:13.711Z,68.00
2018-08-19T23:56:40.024Z,68.31
2018-08-19T23:59:06.336Z,68.16
